Time;durP1;ratioP1;P1;durP2;ratioP2;P2;SDS_P1;SDS_P2;PMS_P1;PMS_P2;Temp;Humidity;BMP_temperature;BMP_pressure;BME280_temperature;BME280_humidity;BME280_pressure;Samples;Min_cycle;Max_cycle;Signal;HPM_P1;HPM_P2
2022/02/15 00:00:49;;;;;;;58.20;2.70;;;;;;;;;;5092332;28;20447;-68
2022/02/15 00:03:16;;;;;;;58.03;2.70;;;;;;;;;;5092975;28;20543;-69
2022/02/15 00:05:43;;;;;;;59.90;3.20;;;;;;;;;;5092732;28;20459;-69
2022/02/15 00:08:10;;;;;;;58.43;2.97;;;;;;;;;;5092809;28;20448;-69
2022/02/15 00:10:39;;;;;;;58.27;3.00;;;;;;;;;;5092678;28;20458;-68
2022/02/15 00:13:06;;;;;;;57.87;2.70;;;;;;;;;;5092107;28;20462;-69
2022/02/15 00:15:35;;;;;;;58.07;2.73;;;;;;;;;;5091927;28;20481;-69
2022/02/15 00:18:02;;;;;;;57.97;2.80;;;;;;;;;;5092216;28;20583;-68
2022/02/15 00:20:29;;;;;;;58.73;3.20;;;;;;;;;;5092718;28;20527;-68
2022/02/15 00:22:57;;;;;;;58.50;3.27;;;;;;;;;;5092094;28;20451;-68
2022/02/15 00:25:24;;;;;;;64.17;5.53;;;;;;;;;;5092350;28;20559;-68
2022/02/15 00:27:53;;;;;;;90.83;17.70;;;;;;;;;;5090413;28;20448;-68
2022/02/15 00:30:20;;;;;;;98.70;17.93;;;;;;;;;;5091791;28;20464;-68
2022/02/15 00:32:49;;;;;;;85.47;14.67;;;;;;;;;;5092626;28;20451;-68
2022/02/15 00:35:16;;;;;;;86.50;16.03;;;;;;;;;;5092391;28;20988;-69
2022/02/15 00:37:45;;;;;;;59.97;4.33;;;;;;;;;;5092289;28;20451;-68
2022/02/15 00:40:13;;;;;;;61.00;4.77;;;;;;;;;;5092389;28;20543;-68
2022/02/15 00:42:40;;;;;;;64.30;5.70;;;;;;;;;;5091821;28;20836;-67
2022/02/15 00:45:08;;;;;;;61.17;4.67;;;;;;;;;;5091863;28;20883;-68
2022/02/15 00:47:35;;;;;;;60.20;3.97;;;;;;;;;;5092001;28;20484;-67
2022/02/15 00:50:05;;;;;;;58.20;3.00;;;;;;;;;;5091761;28;20444;-69
2022/02/15 00:52:32;;;;;;;59.97;3.50;;;;;;;;;;5091585;28;20952;-69
2022/02/15 00:54:59;;;;;;;58.83;3.10;;;;;;;;;;5091558;28;20479;-69
2022/02/15 00:57:26;;;;;;;61.27;3.20;;;;;;;;;;5091274;28;20449;-69
2022/02/15 00:59:54;;;;;;;59.63;3.53;;;;;;;;;;5079550;28;20488;-69
2022/02/15 01:02:21;;;;;;;58.60;3.40;;;;;;;;;;5071521;28;20612;-69
2022/02/15 01:04:48;;;;;;;58.43;3.10;;;;;;;;;;5071407;28;20504;-69
2022/02/15 01:07:16;;;;;;;58.67;3.60;;;;;;;;;;5070730;28;20455;-69
2022/02/15 01:09:43;;;;;;;58.70;3.40;;;;;;;;;;5071397;28;20202;-70
2022/02/15 01:12:11;;;;;;;60.07;3.83;;;;;;;;;;5071810;28;20206;-69
2022/02/15 01:14:38;;;;;;;59.00;3.40;;;;;;;;;;5071276;28;20470;-69
2022/02/15 01:17:06;;;;;;;58.17;3.20;;;;;;;;;;5071579;28;20474;-69
2022/02/15 01:19:33;;;;;;;62.60;3.80;;;;;;;;;;5071491;28;21050;-69
2022/02/15 01:22:00;;;;;;;58.77;3.70;;;;;;;;;;5071728;28;21012;-69
2022/02/15 01:24:28;;;;;;;58.57;3.50;;;;;;;;;;5071248;28;20556;-69
2022/02/15 01:26:56;;;;;;;58.80;3.17;;;;;;;;;;5071561;28;20881;-69
2022/02/15 01:29:23;;;;;;;58.80;3.37;;;;;;;;;;5071185;28;20647;-70
2022/02/15 01:31:50;;;;;;;58.93;3.47;;;;;;;;;;5080835;28;20507;-69
2022/02/15 01:34:18;;;;;;;58.17;3.10;;;;;;;;;;5090844;28;20469;-69
2022/02/15 01:36:45;;;;;;;60.35;3.20;;;;;;;;;;5091505;28;20449;-69
2022/02/15 01:39:12;;;;;;;59.30;3.20;;;;;;;;;;5091520;28;20228;-69
2022/02/15 01:41:41;;;;;;;58.95;3.92;;;;;;;;;;5091322;28;20297;-67
2022/02/15 01:44:08;;;;;;;58.27;3.17;;;;;;;;;;5091303;28;20224;-67
2022/02/15 01:46:35;;;;;;;58.97;3.55;;;;;;;;;;5091191;28;20447;-68
2022/02/15 01:49:02;;;;;;;59.15;3.60;;;;;;;;;;5090961;28;20204;-68
2022/02/15 01:51:30;;;;;;;59.20;3.20;;;;;;;;;;5091759;28;20210;-67
2022/02/15 01:53:57;;;;;;;58.72;3.60;;;;;;;;;;5091127;28;20679;-68
2022/02/15 01:56:26;;;;;;;58.63;3.50;;;;;;;;;;5091636;28;20211;-67
2022/02/15 01:58:55;;;;;;;59.28;3.58;;;;;;;;;;5090312;28;20317;-67
2022/02/15 02:01:22;;;;;;;59.35;3.70;;;;;;;;;;5091166;28;20531;-67
2022/02/15 02:03:49;;;;;;;59.33;3.60;;;;;;;;;;5089816;28;20589;-68
2022/02/15 02:06:16;;;;;;;59.28;3.80;;;;;;;;;;5091659;28;20581;-67
2022/02/15 02:08:43;;;;;;;60.55;4.25;;;;;;;;;;5090981;28;20349;-67
2022/02/15 02:11:10;;;;;;;58.92;3.45;;;;;;;;;;5091445;28;20213;-68
2022/02/15 02:13:38;;;;;;;58.50;3.80;;;;;;;;;;5091253;28;20336;-68
2022/02/15 02:16:07;;;;;;;60.03;4.05;;;;;;;;;;5090898;28;20205;-67
2022/02/15 02:18:34;;;;;;;60.95;5.50;;;;;;;;;;5091309;28;20228;-67
2022/02/15 02:21:04;;;;;;;60.58;3.80;;;;;;;;;;5094998;28;20628;-67
2022/02/15 02:23:31;;;;;;;60.85;5.00;;;;;;;;;;5095361;28;20296;-67
2022/02/15 02:25:58;;;;;;;61.13;5.25;;;;;;;;;;5094536;28;20300;-67
2022/02/15 02:28:25;;;;;;;60.33;5.18;;;;;;;;;;5094571;28;20204;-68
2022/02/15 02:30:52;;;;;;;59.92;4.47;;;;;;;;;;5093923;28;20201;-67
2022/02/15 02:33:20;;;;;;;70.78;5.22;;;;;;;;;;5094517;28;20240;-68
2022/02/15 02:35:48;;;;;;;59.60;4.57;;;;;;;;;;5092846;28;20216;-67
2022/02/15 02:38:17;;;;;;;59.90;4.47;;;;;;;;;;5094105;28;20211;-67
2022/02/15 02:40:44;;;;;;;60.65;4.72;;;;;;;;;;5094276;28;20211;-68
2022/02/15 02:43:11;;;;;;;59.55;4.28;;;;;;;;;;5094245;28;20204;-67
2022/02/15 02:45:38;;;;;;;59.55;4.40;;;;;;;;;;5093516;28;20204;-68
2022/02/15 02:48:05;;;;;;;60.00;4.43;;;;;;;;;;5093713;28;20215;-68
2022/02/15 02:50:32;;;;;;;59.92;4.15;;;;;;;;;;5076894;28;20205;-68
2022/02/15 02:53:00;;;;;;;58.85;3.88;;;;;;;;;;5073866;28;20297;-68
2022/02/15 02:55:29;;;;;;;60.25;4.07;;;;;;;;;;5074086;28;20615;-68
2022/02/15 02:57:56;;;;;;;59.50;4.40;;;;;;;;;;5073722;28;20237;-68
2022/02/15 03:00:23;;;;;;;60.85;5.82;;;;;;;;;;5073865;28;20221;-68
2022/02/15 03:02:50;;;;;;;60.35;4.30;;;;;;;;;;5073743;28;20256;-68
2022/02/15 03:05:17;;;;;;;60.70;4.30;;;;;;;;;;5073712;28;20231;-68
2022/02/15 03:07:44;;;;;;;62.17;4.30;;;;;;;;;;5071608;28;20209;-68
2022/02/15 03:10:12;;;;;;;62.50;4.10;;;;;;;;;;5073892;28;20200;-68
2022/02/15 03:12:40;;;;;;;59.97;4.00;;;;;;;;;;5073470;28;20213;-68
2022/02/15 03:15:08;;;;;;;60.95;4.05;;;;;;;;;;5073691;28;20225;-68
2022/02/15 03:17:35;;;;;;;59.35;4.25;;;;;;;;;;5073173;28;20312;-68
2022/02/15 03:20:02;;;;;;;60.70;4.00;;;;;;;;;;5073398;28;20221;-68
2022/02/15 03:22:29;;;;;;;60.00;4.20;;;;;;;;;;5073728;28;20296;-68
2022/02/15 03:24:56;;;;;;;59.45;4.00;;;;;;;;;;5073514;28;20264;-68
2022/02/15 03:27:23;;;;;;;64.10;5.60;;;;;;;;;;5073142;28;20294;-68
2022/02/15 03:29:52;;;;;;;61.78;4.20;;;;;;;;;;5072735;28;20209;-68
2022/02/15 03:32:19;;;;;;;59.45;4.00;;;;;;;;;;5073097;28;20298;-68
2022/02/15 03:34:46;;;;;;;60.20;4.20;;;;;;;;;;5072898;28;20315;-68
2022/02/15 03:37:13;;;;;;;60.38;4.80;;;;;;;;;;5073075;28;20232;-68
2022/02/15 03:39:40;;;;;;;61.78;4.22;;;;;;;;;;5072751;28;20232;-68
2022/02/15 03:44:54;;;;;;;59.67;3.80;;;;;;;;;;5093148;28;20685;-68
2022/02/15 03:47:21;;;;;;;60.08;4.10;;;;;;;;;;5092720;28;20209;-68
2022/02/15 03:49:49;;;;;;;61.53;4.45;;;;;;;;;;5093147;28;20206;-68
2022/02/15 03:52:16;;;;;;;60.40;3.55;;;;;;;;;;5093115;28;20291;-69
2022/02/15 03:54:43;;;;;;;60.47;4.85;;;;;;;;;;5093158;28;20255;-68
2022/02/15 03:57:10;;;;;;;61.88;4.38;;;;;;;;;;5093131;28;20546;-68
2022/02/15 03:59:37;;;;;;;61.50;4.50;;;;;;;;;;5093241;28;20226;-68
2022/02/15 04:02:06;;;;;;;60.65;4.07;;;;;;;;;;5093042;28;20300;-68
2022/02/15 04:04:33;;;;;;;60.55;4.03;;;;;;;;;;5092942;28;20311;-68
2022/02/15 04:07:00;;;;;;;60.17;4.20;;;;;;;;;;5092943;28;20371;-68
2022/02/15 04:09:27;;;;;;;60.70;4.10;;;;;;;;;;5092454;28;20200;-68
2022/02/15 04:11:54;;;;;;;62.60;5.00;;;;;;;;;;5092870;28;20200;-68
2022/02/15 04:14:22;;;;;;;65.15;5.57;;;;;;;;;;5090530;28;20228;-68
2022/02/15 04:16:49;;;;;;;73.68;6.45;;;;;;;;;;5092877;28;20206;-68
2022/02/15 04:19:18;;;;;;;77.65;6.90;;;;;;;;;;5092468;28;20220;-68
2022/02/15 04:21:45;;;;;;;76.05;7.53;;;;;;;;;;5092901;28;20201;-68
2022/02/15 04:24:12;;;;;;;79.32;12.20;;;;;;;;;;5092712;28;20221;-68
2022/02/15 04:26:39;;;;;;;84.93;11.75;;;;;;;;;;5092363;28;20300;-68
2022/02/15 04:29:06;;;;;;;76.65;9.50;;;;;;;;;;5091973;28;20219;-68
2022/02/15 04:31:33;;;;;;;72.45;9.63;;;;;;;;;;5092720;28;20202;-68
2022/02/15 04:34:01;;;;;;;72.93;8.15;;;;;;;;;;5092343;28;20576;-68
2022/02/15 04:36:29;;;;;;;72.63;7.85;;;;;;;;;;5092550;28;20295;-68
2022/02/15 04:38:56;;;;;;;65.50;6.00;;;;;;;;;;5091806;28;20204;-68
2022/02/15 04:41:23;;;;;;;64.63;5.13;;;;;;;;;;5091863;28;20200;-68
2022/02/15 04:43:50;;;;;;;71.45;6.95;;;;;;;;;;5091856;28;20740;-68
2022/02/15 04:46:18;;;;;;;62.95;5.30;;;;;;;;;;5090222;28;20204;-68
2022/02/15 04:48:45;;;;;;;64.00;4.60;;;;;;;;;;5091922;28;20216;-68
2022/02/15 04:51:12;;;;;;;64.18;5.15;;;;;;;;;;5091923;28;20296;-68
2022/02/15 04:53:40;;;;;;;63.45;5.07;;;;;;;;;;5091875;28;20224;-68
2022/02/15 04:56:07;;;;;;;66.57;6.13;;;;;;;;;;5091916;28;20297;-68
2022/02/15 04:58:35;;;;;;;65.13;5.15;;;;;;;;;;5091854;28;20291;-68
2022/02/15 05:01:02;;;;;;;63.75;5.18;;;;;;;;;;5091703;28;20266;-69
2022/02/15 05:03:29;;;;;;;65.50;5.93;;;;;;;;;;5091866;28;20212;-68
2022/02/15 05:05:56;;;;;;;78.75;10.15;;;;;;;;;;5091719;28;20700;-68
2022/02/15 05:08:23;;;;;;;64.82;6.60;;;;;;;;;;5091456;28;20200;-68
2022/02/15 05:10:52;;;;;;;65.07;5.78;;;;;;;;;;5091670;28;20200;-68
2022/02/15 05:13:19;;;;;;;65.57;5.60;;;;;;;;;;5091812;28;20257;-68
2022/02/15 05:15:46;;;;;;;63.90;5.70;;;;;;;;;;5091882;28;20294;-68
2022/02/15 05:18:14;;;;;;;62.72;5.10;;;;;;;;;;5089989;28;20210;-68
2022/02/15 05:20:41;;;;;;;64.05;5.80;;;;;;;;;;5092072;28;20225;-68
2022/02/15 05:23:08;;;;;;;63.22;4.63;;;;;;;;;;5091413;28;20300;-68
2022/02/15 05:25:35;;;;;;;59.40;4.50;;;;;;;;;;5091765;28;20234;-68
2022/02/15 05:28:04;;;;;;;59.83;3.58;;;;;;;;;;5091391;28;20210;-67
2022/02/15 05:30:31;;;;;;;61.58;3.97;;;;;;;;;;5091642;28;20315;-68
2022/02/15 05:32:58;;;;;;;59.97;4.15;;;;;;;;;;5091644;28;20628;-68
2022/02/15 05:35:26;;;;;;;59.95;3.83;;;;;;;;;;5091256;28;20221;-68
2022/02/15 05:37:53;;;;;;;60.42;3.40;;;;;;;;;;5091189;28;20699;-68
2022/02/15 05:40:20;;;;;;;65.50;3.63;;;;;;;;;;5091573;28;20594;-68
2022/02/15 05:42:47;;;;;;;59.38;4.05;;;;;;;;;;5091628;28;20590;-68
2022/02/15 05:45:16;;;;;;;59.42;4.05;;;;;;;;;;5091333;28;20544;-68
2022/02/15 05:47:43;;;;;;;60.22;3.70;;;;;;;;;;5090902;28;20217;-68
2022/02/15 05:53:04;;;;;;;63.10;3.75;;;;;;;;;;5054665;28;20288;-68
2022/02/15 05:55:31;;;;;;;60.08;3.92;;;;;;;;;;5095110;28;20614;-68
2022/02/15 05:57:58;;;;;;;59.83;3.80;;;;;;;;;;5094996;28;20262;-68
2022/02/15 06:00:27;;;;;;;59.70;4.00;;;;;;;;;;5095038;28;21080;-68
2022/02/15 06:02:54;;;;;;;60.40;3.75;;;;;;;;;;5095069;28;20254;-68
2022/02/15 06:05:21;;;;;;;60.93;3.60;;;;;;;;;;5094839;28;20312;-68
2022/02/15 06:07:48;;;;;;;59.17;3.50;;;;;;;;;;5095010;28;20439;-68
2022/02/15 06:10:15;;;;;;;58.42;3.70;;;;;;;;;;5094756;28;20454;-69
2022/02/15 06:12:42;;;;;;;59.60;3.60;;;;;;;;;;5095080;28;20752;-68
2022/02/15 06:15:11;;;;;;;59.85;4.00;;;;;;;;;;5094562;28;20225;-68
2022/02/15 06:17:40;;;;;;;60.60;3.90;;;;;;;;;;5094665;28;20206;-68
2022/02/15 06:20:07;;;;;;;62.33;4.13;;;;;;;;;;5093040;28;20222;-69
2022/02/15 06:22:35;;;;;;;58.50;3.40;;;;;;;;;;5094834;28;20651;-69
2022/02/15 06:25:02;;;;;;;62.92;3.72;;;;;;;;;;5094934;28;20474;-69
2022/02/15 06:27:29;;;;;;;59.95;3.83;;;;;;;;;;5094302;28;20211;-69
2022/02/15 06:29:56;;;;;;;65.13;4.40;;;;;;;;;;5094619;28;20244;-69
2022/02/15 06:32:23;;;;;;;60.00;3.67;;;;;;;;;;5094792;28;20445;-69
2022/02/15 06:34:52;;;;;;;59.90;4.40;;;;;;;;;;5094343;28;21013;-69
2022/02/15 06:37:19;;;;;;;59.90;4.00;;;;;;;;;;5094125;28;20455;-69
2022/02/15 06:39:47;;;;;;;60.47;4.05;;;;;;;;;;5094370;28;20233;-69
2022/02/15 06:42:14;;;;;;;64.65;4.47;;;;;;;;;;5094282;28;20614;-69
2022/02/15 06:44:41;;;;;;;61.75;4.28;;;;;;;;;;5094432;28;20225;-68
2022/02/15 06:47:08;;;;;;;58.95;3.70;;;;;;;;;;5094474;28;20524;-69
2022/02/15 06:49:35;;;;;;;60.10;3.90;;;;;;;;;;5094322;28;20634;-68
2022/02/15 06:52:04;;;;;;;59.70;4.03;;;;;;;;;;5092814;28;20449;-68
2022/02/15 06:54:31;;;;;;;65.88;4.50;;;;;;;;;;5093999;28;20550;-69
2022/02/15 06:56:59;;;;;;;59.80;4.00;;;;;;;;;;5094019;28;20591;-68
2022/02/15 06:59:26;;;;;;;59.47;3.73;;;;;;;;;;5094098;28;20447;-68
2022/02/15 07:01:53;;;;;;;60.40;4.30;;;;;;;;;;5094064;28;20969;-69
2022/02/15 07:04:20;;;;;;;61.93;4.30;;;;;;;;;;5093825;28;20225;-68
2022/02/15 07:06:47;;;;;;;59.30;4.30;;;;;;;;;;5092825;28;20472;-68
2022/02/15 07:09:16;;;;;;;59.63;3.95;;;;;;;;;;5093348;28;20265;-68
2022/02/15 07:11:43;;;;;;;59.37;3.67;;;;;;;;;;5094115;28;20212;-68
2022/02/15 07:14:10;;;;;;;59.67;3.80;;;;;;;;;;5093921;28;20494;-68
2022/02/15 07:16:38;;;;;;;59.85;3.95;;;;;;;;;;5093910;28;20890;-68
2022/02/15 07:19:05;;;;;;;60.70;4.20;;;;;;;;;;5093520;28;20274;-68
2022/02/15 07:21:32;;;;;;;58.97;3.60;;;;;;;;;;5093670;28;20582;-68
2022/02/15 07:24:00;;;;;;;60.15;3.50;;;;;;;;;;5092614;28;20854;-67
2022/02/15 07:26:28;;;;;;;58.60;3.50;;;;;;;;;;5093405;28;20236;-67
2022/02/15 07:28:55;;;;;;;60.00;3.70;;;;;;;;;;5092995;28;20966;-67
2022/02/15 07:31:23;;;;;;;58.10;3.00;;;;;;;;;;5093554;28;20521;-67
2022/02/15 07:33:50;;;;;;;58.00;3.17;;;;;;;;;;5093470;28;20471;-67
2022/02/15 07:36:19;;;;;;;58.23;3.07;;;;;;;;;;5093255;28;20576;-67
2022/02/15 07:38:47;;;;;;;58.55;2.92;;;;;;;;;;5093244;28;20508;-67
2022/02/15 07:41:14;;;;;;;58.15;2.92;;;;;;;;;;5093516;28;20241;-67
2022/02/15 07:43:44;;;;;;;60.00;3.23;;;;;;;;;;5092962;28;20730;-67
2022/02/15 07:46:11;;;;;;;58.13;3.10;;;;;;;;;;5093209;28;20456;-67
2022/02/15 07:48:38;;;;;;;58.30;2.93;;;;;;;;;;5092837;28;20446;-69
2022/02/15 07:51:05;;;;;;;58.37;2.83;;;;;;;;;;5092816;28;20443;-66
2022/02/15 07:53:32;;;;;;;59.90;3.43;;;;;;;;;;5093060;28;20460;-67
2022/02/15 07:56:00;;;;;;;58.65;3.30;;;;;;;;;;5091548;28;20471;-67
2022/02/15 07:58:27;;;;;;;61.40;3.20;;;;;;;;;;5092425;28;20211;-67
2022/02/15 08:00:55;;;;;;;60.80;4.00;;;;;;;;;;5092488;28;20475;-67
2022/02/15 08:03:23;;;;;;;59.40;3.70;;;;;;;;;;5092553;28;20453;-67
2022/02/15 08:05:50;;;;;;;58.40;2.97;;;;;;;;;;5092584;28;20266;-67
2022/02/15 08:08:17;;;;;;;58.50;3.30;;;;;;;;;;5092627;28;20465;-68
2022/02/15 08:10:45;;;;;;;62.50;3.60;;;;;;;;;;5092777;28;20299;-67
2022/02/15 08:13:18;;;;;;;63.55;3.60;;;;;;;;;;5092528;28;20455;-68
2022/02/15 08:15:45;;;;;;;59.73;3.20;;;;;;;;;;5092646;28;20205;-68
2022/02/15 08:18:14;;;;;;;59.37;3.50;;;;;;;;;;5091706;28;20451;-68
2022/02/15 08:20:41;;;;;;;58.80;3.50;;;;;;;;;;5092342;28;20485;-68
2022/02/15 08:23:09;;;;;;;59.23;3.40;;;;;;;;;;5092462;28;20442;-68
2022/02/15 08:25:37;;;;;;;59.20;2.93;;;;;;;;;;5093118;28;20471;-68
2022/02/15 08:28:06;;;;;;;59.07;3.40;;;;;;;;;;5085796;28;20453;-68
2022/02/15 08:30:33;;;;;;;59.97;3.20;;;;;;;;;;5072021;28;20460;-68
2022/02/15 08:33:00;;;;;;;58.88;3.50;;;;;;;;;;5072238;28;20453;-68
2022/02/15 08:35:29;;;;;;;59.57;3.37;;;;;;;;;;5072100;28;20584;-68
2022/02/15 08:37:56;;;;;;;60.00;3.23;;;;;;;;;;5071876;28;20825;-68
2022/02/15 08:40:23;;;;;;;58.63;3.40;;;;;;;;;;5071916;28;20452;-68
2022/02/15 08:42:50;;;;;;;58.80;3.17;;;;;;;;;;5071907;28;20452;-68
2022/02/15 08:45:18;;;;;;;61.33;4.53;;;;;;;;;;5071492;28;20973;-68
2022/02/15 08:47:45;;;;;;;58.30;3.17;;;;;;;;;;5071770;28;20455;-68
2022/02/15 08:50:12;;;;;;;59.37;3.60;;;;;;;;;;5071698;28;20969;-68
2022/02/15 08:52:41;;;;;;;59.23;4.03;;;;;;;;;;5071757;28;20445;-68
2022/02/15 08:55:09;;;;;;;58.47;3.97;;;;;;;;;;5071603;28;20552;-68
2022/02/15 08:57:36;;;;;;;58.20;3.20;;;;;;;;;;5071395;28;21067;-68
2022/02/15 09:00:03;;;;;;;77.77;3.60;;;;;;;;;;5070373;28;20453;-68
2022/02/15 09:02:31;;;;;;;58.43;3.30;;;;;;;;;;5071433;28;20484;-68
2022/02/15 09:04:58;;;;;;;59.00;3.10;;;;;;;;;;5071374;28;20481;-68
2022/02/15 09:07:25;;;;;;;59.57;3.13;;;;;;;;;;5071915;28;20450;-68
2022/02/15 09:09:53;;;;;;;58.77;3.63;;;;;;;;;;5071678;28;20478;-68
2022/02/15 09:12:20;;;;;;;58.53;3.10;;;;;;;;;;5071440;28;20438;-69
2022/02/15 09:14:48;;;;;;;58.73;3.37;;;;;;;;;;5071389;28;20473;-68
2022/02/15 09:17:15;;;;;;;59.47;3.33;;;;;;;;;;5071389;28;20449;-68
2022/02/15 09:19:42;;;;;;;58.50;3.40;;;;;;;;;;5071709;28;20558;-68
2022/02/15 09:22:09;;;;;;;58.30;3.10;;;;;;;;;;5071713;28;21027;-68
2022/02/15 09:24:36;;;;;;;60.47;3.30;;;;;;;;;;5071332;28;20719;-68
2022/02/15 09:27:05;;;;;;;59.83;4.13;;;;;;;;;;5071206;28;20806;-68
2022/02/15 09:29:32;;;;;;;59.05;3.33;;;;;;;;;;5073683;28;20465;-68
2022/02/15 09:32:00;;;;;;;59.00;3.43;;;;;;;;;;5074272;28;20205;-68
2022/02/15 09:34:27;;;;;;;62.10;3.87;;;;;;;;;;5075652;28;20860;-68
2022/02/15 09:36:54;;;;;;;59.70;3.87;;;;;;;;;;5075252;28;20941;-68
2022/02/15 09:39:23;;;;;;;59.67;3.70;;;;;;;;;;5074888;28;20772;-68
2022/02/15 09:41:50;;;;;;;59.67;3.20;;;;;;;;;;5075348;28;21060;-68
2022/02/15 09:44:18;;;;;;;58.37;3.27;;;;;;;;;;5075224;28;20469;-68
2022/02/15 09:46:46;;;;;;;59.17;3.50;;;;;;;;;;5075211;28;20449;-68
2022/02/15 09:51:55;;;;;;;59.80;4.33;;;;;;;;;;5074487;28;20426;-68
2022/02/15 09:54:22;;;;;;;59.90;4.30;;;;;;;;;;5074782;28;20464;-68
2022/02/15 09:56:49;;;;;;;62.57;4.20;;;;;;;;;;5075145;28;20451;-68
2022/02/15 09:59:18;;;;;;;59.63;4.13;;;;;;;;;;5074804;28;20812;-68
2022/02/15 10:01:47;;;;;;;59.87;4.33;;;;;;;;;;5074474;28;20857;-68
2022/02/15 10:04:14;;;;;;;59.47;4.37;;;;;;;;;;5087402;28;20475;-68
2022/02/15 10:06:42;;;;;;;60.00;4.20;;;;;;;;;;5095006;28;20452;-68
2022/02/15 10:09:09;;;;;;;60.73;3.60;;;;;;;;;;5094745;28;20449;-69
2022/02/15 10:11:37;;;;;;;59.27;3.80;;;;;;;;;;5095049;28;20933;-69
2022/02/15 10:14:04;;;;;;;60.20;3.83;;;;;;;;;;5095103;28;20465;-69
2022/02/15 10:16:32;;;;;;;59.83;3.43;;;;;;;;;;5095032;28;20820;-68
2022/02/15 10:19:01;;;;;;;60.70;4.33;;;;;;;;;;5094485;28;20433;-68
2022/02/15 10:21:29;;;;;;;59.20;3.27;;;;;;;;;;5094902;28;20490;-68
2022/02/15 10:23:58;;;;;;;58.90;3.57;;;;;;;;;;5094475;28;20469;-68
2022/02/15 10:26:28;;;;;;;62.43;3.63;;;;;;;;;;5095083;28;20576;-66
2022/02/15 10:28:55;;;;;;;59.97;3.87;;;;;;;;;;5094407;28;20464;-68
2022/02/15 10:31:23;;;;;;;61.83;4.57;;;;;;;;;;5094394;28;20529;-68
2022/02/15 10:33:50;;;;;;;59.67;3.10;;;;;;;;;;5094443;28;20462;-68
2022/02/15 10:36:18;;;;;;;58.80;3.50;;;;;;;;;;5094784;28;20456;-67
2022/02/15 10:38:49;;;;;;;59.47;3.40;;;;;;;;;;5094467;28;20445;-67
2022/02/15 10:41:17;;;;;;;60.23;3.67;;;;;;;;;;5094268;28;20490;-68
2022/02/15 10:43:46;;;;;;;59.07;3.57;;;;;;;;;;5094272;28;20996;-70
2022/02/15 10:46:13;;;;;;;59.80;3.50;;;;;;;;;;5092270;28;20451;-70
2022/02/15 10:48:41;;;;;;;58.50;3.30;;;;;;;;;;5094208;28;21225;-69
2022/02/15 10:51:08;;;;;;;63.97;4.00;;;;;;;;;;5094248;28;20448;-69
2022/02/15 10:53:37;;;;;;;59.00;3.20;;;;;;;;;;5094291;28;20471;-69
2022/02/15 10:56:05;;;;;;;59.97;3.23;;;;;;;;;;5093857;28;20480;-69
2022/02/15 10:58:32;;;;;;;59.93;3.70;;;;;;;;;;5093887;28;20471;-68
2022/02/15 11:00:59;;;;;;;58.93;3.43;;;;;;;;;;5094171;28;20822;-69
2022/02/15 11:03:30;;;;;;;58.20;3.47;;;;;;;;;;5094087;28;20445;-69
2022/02/15 11:05:57;;;;;;;58.70;3.30;;;;;;;;;;5094125;28;20939;-69
2022/02/15 11:08:24;;;;;;;59.17;3.50;;;;;;;;;;5093848;28;20449;-69
2022/02/15 11:10:56;;;;;;;60.67;3.17;;;;;;;;;;5094086;28;20851;-69
2022/02/15 11:13:24;;;;;;;59.13;3.73;;;;;;;;;;5093965;28;20456;-69
2022/02/15 11:15:55;;;;;;;58.43;3.17;;;;;;;;;;5093229;28;20440;-68
2022/02/15 11:18:29;;;;;;;58.57;2.80;;;;;;;;;;5093262;28;20862;-69
2022/02/15 11:20:56;;;;;;;60.37;3.70;;;;;;;;;;5093706;28;20450;-69
2022/02/15 11:23:24;;;;;;;58.50;3.07;;;;;;;;;;5093476;28;20540;-69
2022/02/15 11:25:52;;;;;;;60.47;3.07;;;;;;;;;;5093971;28;20535;-69
2022/02/15 11:28:20;;;;;;;59.00;3.40;;;;;;;;;;5093510;28;20444;-69
2022/02/15 11:30:53;;;;;;;59.43;3.87;;;;;;;;;;5093786;28;20797;-69
2022/02/15 11:33:24;;;;;;;58.40;3.60;;;;;;;;;;5093490;28;20437;-69
2022/02/15 11:35:52;;;;;;;58.40;3.37;;;;;;;;;;5093434;28;20442;-69
2022/02/15 11:38:19;;;;;;;59.07;3.70;;;;;;;;;;5092924;28;20457;-69
2022/02/15 11:40:56;;;;;;;59.07;3.17;;;;;;;;;;5093435;28;20442;-70
2022/02/15 11:43:24;;;;;;;58.60;3.50;;;;;;;;;;5093101;28;20491;-69
2022/02/15 11:45:51;;;;;;;58.60;3.30;;;;;;;;;;5093378;28;20540;-69
2022/02/15 11:48:19;;;;;;;59.07;3.50;;;;;;;;;;5092959;28;20528;-70
2022/02/15 11:50:48;;;;;;;58.67;3.70;;;;;;;;;;5092905;28;20984;-69
2022/02/15 11:53:17;;;;;;;59.37;3.37;;;;;;;;;;5092852;28;20510;-69
2022/02/15 11:55:44;;;;;;;62.00;3.57;;;;;;;;;;5093079;28;20450;-69
2022/02/15 11:58:12;;;;;;;58.97;3.27;;;;;;;;;;5092751;28;20483;-69
2022/02/15 12:00:41;;;;;;;65.53;3.50;;;;;;;;;;5093143;28;20531;-68
2022/02/15 12:03:08;;;;;;;60.27;3.90;;;;;;;;;;5092623;28;20476;-69
2022/02/15 12:05:40;;;;;;;59.60;2.87;;;;;;;;;;5093027;28;20556;-69
2022/02/15 12:08:07;;;;;;;58.23;3.00;;;;;;;;;;5092718;28;20464;-69
2022/02/15 12:10:35;;;;;;;59.80;3.10;;;;;;;;;;5092724;28;20446;-69
2022/02/15 12:13:02;;;;;;;59.17;3.00;;;;;;;;;;5092635;28;20441;-69
2022/02/15 12:15:35;;;;;;;62.43;3.47;;;;;;;;;;5092345;28;20473;-69
2022/02/15 12:18:04;;;;;;;58.60;3.27;;;;;;;;;;5092500;28;20456;-69
2022/02/15 12:20:31;;;;;;;60.17;3.63;;;;;;;;;;5092728;28;20514;-68
2022/02/15 12:22:59;;;;;;;62.03;4.13;;;;;;;;;;5092364;28;20484;-68
2022/02/15 12:25:26;;;;;;;58.50;3.20;;;;;;;;;;5092412;28;20503;-69
2022/02/15 12:27:54;;;;;;;60.47;4.37;;;;;;;;;;5091983;28;20532;-68
2022/02/15 12:30:21;;;;;;;60.33;3.77;;;;;;;;;;5092261;28;20468;-68
2022/02/15 12:32:49;;;;;;;58.57;3.30;;;;;;;;;;5092564;28;20882;-69
2022/02/15 12:35:25;;;;;;;65.83;3.80;;;;;;;;;;5092387;28;20994;-68
2022/02/15 12:37:52;;;;;;;58.47;3.20;;;;;;;;;;5092217;28;20446;-69
2022/02/15 12:40:20;;;;;;;58.47;3.43;;;;;;;;;;5092242;28;20449;-68
2022/02/15 12:42:47;;;;;;;60.43;3.43;;;;;;;;;;5092076;28;20482;-69
2022/02/15 12:45:14;;;;;;;60.93;3.70;;;;;;;;;;5092322;28;20472;-69
2022/02/15 12:47:43;;;;;;;62.47;3.10;;;;;;;;;;5092089;28;20503;-69
2022/02/15 12:50:11;;;;;;;58.73;3.50;;;;;;;;;;5092295;28;20823;-69
2022/02/15 12:52:40;;;;;;;58.30;3.20;;;;;;;;;;5092046;28;20969;-69
2022/02/15 12:55:12;;;;;;;61.50;3.10;;;;;;;;;;5091975;28;20474;-68
2022/02/15 12:57:40;;;;;;;58.97;3.30;;;;;;;;;;5089745;28;20449;-67
2022/02/15 13:00:08;;;;;;;58.40;3.10;;;;;;;;;;5092062;28;20450;-67
2022/02/15 13:02:35;;;;;;;59.00;3.73;;;;;;;;;;5091498;28;20879;-67
2022/02/15 13:05:03;;;;;;;59.40;3.53;;;;;;;;;;5091063;28;20488;-70
2022/02/15 13:07:30;;;;;;;58.30;3.43;;;;;;;;;;5091032;28;20822;-68
2022/02/15 13:10:01;;;;;;;59.87;3.70;;;;;;;;;;5091344;28;20454;-68
2022/02/15 13:12:29;;;;;;;60.07;3.63;;;;;;;;;;5091897;28;20517;-68
2022/02/15 13:14:57;;;;;;;59.33;3.20;;;;;;;;;;5091909;28;20549;-68
2022/02/15 13:17:25;;;;;;;59.57;3.20;;;;;;;;;;5091370;28;20443;-68
2022/02/15 13:19:53;;;;;;;58.70;3.30;;;;;;;;;;5091945;28;20789;-68
2022/02/15 13:22:20;;;;;;;58.90;3.53;;;;;;;;;;5091406;28;21005;-67
2022/02/15 13:24:52;;;;;;;58.10;3.40;;;;;;;;;;5091930;28;20498;-69
2022/02/15 13:27:31;;;;;;;59.53;3.40;;;;;;;;;;5091485;28;20457;-69
2022/02/15 13:29:59;;;;;;;59.93;3.53;;;;;;;;;;5091877;28;20458;-69
2022/02/15 13:32:30;;;;;;;59.83;3.60;;;;;;;;;;5091513;28;20442;-70
2022/02/15 13:34:57;;;;;;;59.20;3.70;;;;;;;;;;5091485;28;20524;-67
2022/02/15 13:37:32;;;;;;;60.97;4.10;;;;;;;;;;5091720;28;20535;-69
2022/02/15 13:39:59;;;;;;;58.50;3.50;;;;;;;;;;5091945;28;20970;-69
2022/02/15 13:42:28;;;;;;;58.90;3.13;;;;;;;;;;5091552;28;20484;-67
2022/02/15 13:44:56;;;;;;;60.47;3.57;;;;;;;;;;5091415;28;20470;-67
2022/02/15 13:47:23;;;;;;;58.67;3.57;;;;;;;;;;5091077;28;20449;-68
2022/02/15 13:49:50;;;;;;;58.80;3.40;;;;;;;;;;5091721;28;20543;-68
2022/02/15 13:52:17;;;;;;;60.25;3.10;;;;;;;;;;5091678;28;20438;-69
2022/02/15 13:54:45;;;;;;;58.10;2.97;;;;;;;;;;5091471;28;20233;-68
2022/02/15 13:57:12;;;;;;;59.50;3.72;;;;;;;;;;5091200;28;20455;-68
2022/02/15 13:59:41;;;;;;;59.35;3.53;;;;;;;;;;5091274;28;20212;-71
2022/02/15 14:02:08;;;;;;;58.35;3.15;;;;;;;;;;5091472;28;20694;-72
2022/02/15 14:04:36;;;;;;;58.47;3.13;;;;;;;;;;5091355;28;20221;-70
2022/02/15 14:07:05;;;;;;;58.95;3.15;;;;;;;;;;5091600;28;20446;-68
2022/02/15 14:09:32;;;;;;;58.42;3.00;;;;;;;;;;5091340;28;20206;-69
2022/02/15 14:12:00;;;;;;;59.53;3.70;;;;;;;;;;5091387;28;20212;-69
2022/02/15 14:14:27;;;;;;;58.60;3.47;;;;;;;;;;5091645;28;20465;-70
2022/02/15 14:17:37;;;;;;;58.50;3.20;;;;;;;;;;5095429;28;20459;-69
2022/02/15 14:19:44;;;;;;;65.37;3.70;;;;;;;;;;5094793;28;20444;-69
2022/02/15 14:22:13;;;;;;;59.20;3.60;;;;;;;;;;5094915;28;20479;-70
2022/02/15 14:24:40;;;;;;;58.90;3.57;;;;;;;;;;5094676;28;20475;-69
2022/02/15 14:27:07;;;;;;;61.10;3.77;;;;;;;;;;5095029;28;20839;-66
2022/02/15 14:29:34;;;;;;;59.80;3.80;;;;;;;;;;5094641;28;20900;-69
2022/02/15 14:32:03;;;;;;;60.67;3.90;;;;;;;;;;5094797;28;20536;-68
2022/02/15 14:34:30;;;;;;;62.07;4.07;;;;;;;;;;5094806;28;20972;-69
2022/02/15 14:36:57;;;;;;;59.07;3.40;;;;;;;;;;5094655;28;20446;-68
2022/02/15 14:39:24;;;;;;;58.43;3.27;;;;;;;;;;5093997;28;20446;-69